.
WxDataArchive / Data Records for 2016-04-05
2016-04-04 April 2016 2016-04-06

Data Records for Tuesday, 05 April 2016

Time	Temp	Chill	HIndex	Humid	Dewpt	 Wind 	HiWind	WindDir	Rain 	Barom
-----	----	-----	------	-----	-----	------	------	-------	-----	-----
00:00	32.4	32.4	32.4	70	23.7	0	1	292	0.00	30.306 
00:05	32.2	32.2	32.2	70	23.5	0	2	292	0.00	30.306 
00:10	32.1	32.1	32.1	70	23.4	0	1	292	0.00	30.306 
00:15	32.1	32.1	32.1	71	23.8	0	3	292	0.00	30.308 
00:20	32.1	32.1	32.1	72	24.1	0	2	292	0.00	30.308 
00:25	31.9	31.9	31.9	73	24.2	0	2	292	0.00	30.308 
00:30	31.9	31.9	31.9	73	24.2	0	1	292	0.00	30.316 
00:35	31.9	31.9	31.9	75	24.9	0	2	292	0.00	30.316 
00:40	31.8	31.8	31.8	76	25.1	0	2	292	0.00	30.316 
00:45	31.8	31.8	31.8	77	25.4	0	3	292	0.00	30.317 
00:50	31.8	31.8	31.8	78	25.7	0	1	292	0.00	30.317 
00:55	31.6	31.6	31.6	79	25.8	0	2	292	0.00	30.317 
01:00	31.6	31.6	31.6	80	26.2	0	3	292	0.00	30.323 
01:05	31.5	31.5	31.5	80	26.1	0	2	292	0.00	30.323 
01:10	31.3	31.3	31.3	80	25.9	0	2	292	0.00	30.323 
01:15	31.3	31.3	31.3	81	26.2	0	1	292	0.00	30.332 
01:20	31.2	31.2	31.2	81	26.1	0	4	292	0.00	30.332 
01:25	31.0	31.0	31.0	80	25.6	1	4	292	0.00	30.332 
01:30	30.9	30.9	30.9	81	25.8	0	2	315	0.00	30.334 
01:35	30.9	30.9	30.9	81	25.8	0	2	315	0.00	30.334 
01:40	30.9	30.9	30.9	81	25.8	0	2	315	0.00	30.334 
01:45	30.7	30.7	30.7	81	25.6	0	2	315	0.00	30.341 
01:50	30.7	30.7	30.7	82	25.9	0	1	315	0.00	30.341 
01:55	30.6	30.6	30.6	82	25.8	0	3	315	0.00	30.341 
02:00	30.6	30.6	30.6	82	25.8	0	2	315	0.00	30.349 
02:05	30.6	30.6	30.6	82	25.8	0	3	315	0.00	30.349 
02:10	30.6	30.6	30.6	82	25.8	0	2	315	0.00	30.349 
02:15	30.4	30.4	30.4	82	25.6	0	1	315	0.00	30.352 
02:20	30.4	30.4	30.4	82	25.6	0	3	315	0.00	30.352 
02:25	30.4	30.4	30.4	82	25.6	0	1	315	0.00	30.352 
02:30	30.3	30.3	30.3	82	25.5	0	2	315	0.00	30.351 
02:35	30.3	30.3	30.3	81	25.2	0	3	315	0.00	30.351 
02:40	30.3	30.3	30.3	81	25.2	0	1	315	0.00	30.351 
02:45	30.3	30.3	30.3	81	25.2	0	1	315	0.00	30.351 
02:50	30.3	30.3	30.3	82	25.5	0	2	315	0.00	30.351 
02:55	30.3	30.3	30.3	81	25.2	0	1	315	0.00	30.351 
03:00	30.3	30.3	30.3	82	25.5	0	2	315	0.00	30.352 
03:05	30.3	30.3	30.3	82	25.5	0	1	315	0.00	30.352 
03:10	30.3	30.3	30.3	82	25.5	0	4	315	0.00	30.352 
03:15	30.3	30.3	30.3	82	25.5	0	3	315	0.00	30.354 
03:20	30.1	30.1	30.1	82	25.3	0	3	315	0.00	30.354 
03:25	30.1	30.1	30.1	82	25.3	0	1	315	0.00	30.354 
03:30	30.0	30.0	30.0	83	25.5	1	5	112	0.00	30.363 
03:35	29.7	29.7	29.7	82	24.9	1	6	112	0.00	30.363 
03:40	29.5	29.5	29.5	82	24.7	1	6	90	0.00	30.363 
03:45	29.4	29.4	29.4	82	24.6	0	2	90	0.00	30.365 
03:50	29.4	29.4	29.4	82	24.6	1	4	112	0.00	30.365 
03:55	29.4	29.4	29.4	82	24.6	1	5	112	0.00	30.365 
04:00	29.4	29.4	29.4	81	24.3	1	4	90	0.00	30.368 
04:05	29.4	29.4	29.4	81	24.3	2	6	90	0.00	30.368 
04:10	29.4	29.4	29.4	81	24.3	1	4	112	0.00	30.368 
04:15	29.4	29.4	29.4	81	24.3	1	4	90	0.00	30.372 
04:20	29.4	29.4	29.4	82	24.6	2	5	90	0.00	30.372 
04:25	29.4	29.4	29.4	82	24.6	2	7	90	0.00	30.372 
04:30	29.4	29.4	29.4	82	24.6	2	6	112	0.00	30.377 
04:35	29.3	29.3	29.3	81	24.2	2	7	112	0.00	30.377 
04:40	29.3	29.3	29.3	80	23.9	1	4	90	0.00	30.377 
04:45	29.3	29.3	29.3	79	23.6	2	6	90	0.00	30.383 
04:50	29.3	29.3	29.3	79	23.6	0	2	90	0.00	30.383 
04:55	29.3	29.3	29.3	79	23.6	1	3	90	0.00	30.383 
05:00	29.1	29.1	29.1	79	23.4	1	5	90	0.00	30.387 
05:05	29.1	29.1	29.1	77	22.8	1	6	90	0.00	30.387 
05:10	29.1	29.1	29.1	77	22.8	0	2	90	0.00	30.387 
05:15	29.1	29.1	29.1	77	22.8	1	4	90	0.00	30.393 
05:20	29.1	29.1	29.1	76	22.5	1	4	90	0.00	30.393 
05:25	29.1	29.1	29.1	79	23.4	1	3	90	0.00	30.393 
05:30	29.1	29.1	29.1	81	24.0	2	5	90	0.00	30.400 
05:35	29.0	29.0	29.0	82	24.2	1	3	90	0.00	30.400 
05:40	28.7	28.7	28.7	82	23.9	2	5	68	0.00	30.400 
05:45	28.4	28.4	28.4	83	23.9	2	4	68	0.00	30.407 
05:50	28.2	28.2	28.2	83	23.7	2	4	112	0.00	30.407 
05:55	28.1	28.1	28.1	83	23.6	2	4	90	0.00	30.407 
06:00	27.8	27.8	27.8	83	23.3	2	4	90	0.00	30.417 
06:05	27.6	27.6	27.6	83	23.1	1	4	90	0.00	30.417 
06:10	27.5	27.5	27.5	83	23.0	2	5	90	0.00	30.417 
06:15	27.3	27.3	27.3	82	22.5	1	4	68	0.00	30.420 
06:20	27.2	27.2	27.2	83	22.7	0	2	68	0.00	30.420 
06:25	27.2	27.2	27.2	83	22.7	0	2	68	0.00	30.420 
06:30	27.0	27.0	27.0	83	22.5	0	2	68	0.00	30.428 
06:35	27.0	27.0	27.0	83	22.5	0	1	68	0.00	30.428 
06:40	26.9	26.9	26.9	83	22.4	0	1	68	0.00	30.428 
06:45	26.7	26.7	26.7	83	22.2	0	1	68	0.00	30.433 
06:50	26.7	26.7	26.7	83	22.2	0	3	68	0.00	30.433 
06:55	26.7	26.7	26.7	84	22.5	0	2	68	0.00	30.433 
07:00	26.9	26.9	26.9	84	22.7	0	2	68	0.00	30.436 
07:05	27.0	27.0	27.0	84	22.8	0	2	68	0.00	30.436 
07:10	27.2	27.2	27.2	84	23.0	0	2	68	0.00	30.436 
07:15	27.2	27.2	27.2	84	23.0	1	3	68	0.00	30.438 
07:20	27.3	27.3	27.3	84	23.1	1	4	68	0.00	30.438 
07:25	27.2	27.2	27.2	82	22.4	1	4	90	0.00	30.438 
07:30	26.9	26.9	26.9	80	21.6	1	4	90	0.00	30.451 
07:35	26.6	26.6	26.6	78	20.7	1	5	112	0.00	30.451 
07:40	26.3	26.3	26.3	77	20.1	1	4	90	0.00	30.451 
07:45	26.1	26.1	26.1	77	19.9	1	5	90	0.00	30.456 
07:50	26.0	26.0	26.0	76	19.5	1	7	112	0.00	30.456 
07:55	25.8	25.8	25.8	74	18.7	3	6	112	0.00	30.456 
08:00	25.8	25.8	25.8	73	18.4	2	7	90	0.00	30.462 
08:05	25.8	25.8	25.8	72	18.0	2	6	112	0.00	30.462 
08:10	26.0	26.0	26.0	72	18.2	1	3	112	0.00	30.462 
08:15	26.1	26.1	26.1	71	18.0	2	6	90	0.00	30.468 
08:20	26.3	26.3	26.3	71	18.2	2	4	90	0.00	30.468 
08:25	26.6	26.6	26.6	71	18.5	1	5	90	0.00	30.468 
08:30	26.7	26.7	26.7	72	18.9	2	5	112	0.00	30.470 
08:35	26.9	26.9	26.9	70	18.4	3	7	90	0.00	30.470 
08:40	27.0	27.0	27.0	68	17.9	3	6	90	0.00	30.470 
08:45	27.2	22.5	27.2	64	16.7	4	9	90	0.00	30.471 
08:50	27.3	27.3	27.3	61	15.7	3	7	90	0.00	30.471 
08:55	27.6	27.6	27.6	60	15.6	3	6	112	0.00	30.471 
09:00	27.8	27.8	27.8	59	15.4	3	7	112	0.00	30.479 
09:05	27.8	27.8	27.8	56	14.2	3	9	90	0.00	30.479 
09:10	28.1	28.1	28.1	56	14.5	3	9	90	0.00	30.479 
09:15	28.4	28.4	28.4	55	14.3	3	7	90	0.00	30.482 
09:20	28.5	24.0	28.5	53	13.6	4	10	112	0.00	30.482 
09:25	28.4	23.9	28.4	54	13.9	4	11	112	0.00	30.482 
09:30	28.4	23.9	28.4	55	14.3	4	10	90	0.00	30.475 
09:35	28.8	28.8	28.8	56	15.1	2	6	112	0.00	30.475 
09:40	29.3	29.3	29.3	55	15.2	3	7	90	0.00	30.475 
09:45	29.5	29.5	29.5	55	15.3	2	9	112	0.00	30.480 
09:50	29.5	29.5	29.5	56	15.8	3	7	112	0.00	30.480 
09:55	29.4	25.1	29.4	55	15.3	4	8	112	0.00	30.480 
10:00	29.7	29.7	29.7	54	15.1	3	9	90	0.00	30.482 
10:05	29.8	25.5	29.8	54	15.2	4	8	90	0.00	30.482 
10:10	30.1	30.1	30.1	55	15.9	3	5	112	0.00	30.482 
10:15	30.4	30.4	30.4	54	15.8	3	6	90	0.00	30.488 
10:20	30.7	30.7	30.7	54	16.0	2	7	90	0.00	30.488 
10:25	31.0	31.0	31.0	54	16.3	3	9	112	0.00	30.488 
10:30	31.5	31.5	31.5	55	17.2	2	6	90	0.00	30.490 
10:35	31.3	27.3	31.3	54	16.6	4	9	112	0.00	30.490 
10:40	31.3	27.3	31.3	53	16.2	4	7	90	0.00	30.490 
10:45	31.5	31.5	31.5	53	16.4	3	7	90	0.00	30.491 
10:50	31.6	31.6	31.6	53	16.5	2	6	90	0.00	30.491 
10:55	32.2	32.2	32.2	54	17.4	3	6	90	0.00	30.491 
11:00	32.4	32.4	32.4	53	17.2	2	6	90	0.00	30.495 
11:05	32.8	32.8	32.8	53	17.6	2	5	112	0.00	30.495 
11:10	33.1	33.1	33.1	53	17.9	2	5	90	0.00	30.495 
11:15	33.4	33.4	33.4	53	18.1	2	6	112	0.00	30.497 
11:20	33.5	33.5	33.5	53	18.2	3	6	90	0.00	30.497 
11:25	33.2	33.2	33.2	53	17.9	3	6	90	0.00	30.497 
11:30	33.4	33.4	33.4	56	19.4	2	6	90	0.00	30.497 
11:35	34.0	34.0	34.0	51	17.8	2	6	112	0.00	30.497 
11:40	34.4	34.4	34.4	53	19.1	3	7	112	0.00	30.497 
11:45	34.4	34.4	34.4	51	18.2	2	6	90	0.00	30.497 
11:50	34.9	34.9	34.9	50	18.2	1	4	112	0.00	30.497 
11:55	35.0	35.0	35.0	52	19.2	2	4	90	0.00	30.497 
12:00	35.0	35.0	35.0	52	19.2	3	7	90	0.00	30.495 
12:05	34.6	34.6	34.6	50	17.9	2	6	90	0.00	30.495 
12:10	34.7	34.7	34.7	53	19.3	2	9	90	0.00	30.495 
12:15	35.2	35.2	35.2	50	18.4	2	5	90	0.00	30.495 
12:20	35.3	35.3	35.3	50	18.5	1	5	90	0.00	30.495 
12:25	35.5	35.5	35.5	49	18.3	2	6	68	0.00	30.495 
12:30	35.0	35.0	35.0	50	18.3	2	5	90	0.00	30.494 
12:35	34.6	34.6	34.6	51	18.4	2	5	90	0.00	30.494 
12:40	35.0	35.0	35.0	52	19.2	2	6	112	0.00	30.494 
12:45	35.8	35.8	35.8	51	19.5	1	4	112	0.00	30.489 
12:50	36.2	36.2	36.2	48	18.4	1	4	112	0.00	30.489 
12:55	35.8	35.8	35.8	49	18.5	1	2	112	0.00	30.489 
13:00	36.2	36.2	36.2	52	20.3	2	4	112	0.00	30.479 
13:05	37.3	37.3	37.3	50	20.4	2	7	90	0.00	30.479 
13:10	36.9	36.9	36.9	49	19.5	2	6	90	0.00	30.479 
13:15	36.8	36.8	36.8	51	20.4	1	4	112	0.00	30.477 
13:20	37.0	37.0	37.0	49	19.6	1	4	112	0.00	30.477 
13:25	37.5	37.5	37.5	52	21.5	2	4	90	0.00	30.477 
13:30	37.8	37.8	37.8	50	20.8	1	3	90	0.00	30.477 
13:35	37.6	37.6	37.6	47	19.2	1	4	90	0.00	30.477 
13:40	37.2	37.2	37.2	47	18.8	0	3	90	0.00	30.477 
13:45	37.5	37.5	37.5	53	21.9	0	3	90	0.00	30.466 
13:50	38.3	38.3	38.3	51	21.8	0	3	90	0.00	30.466 
13:55	38.6	38.6	38.6	46	19.6	1	3	90	0.00	30.466 
14:00	39.3	39.3	39.3	50	22.2	1	4	90	0.00	30.461 
14:05	39.1	39.1	39.1	47	20.6	2	4	90	0.00	30.461 
14:10	38.8	38.8	38.8	47	20.3	2	6	112	0.00	30.461 
14:15	38.6	38.6	38.6	51	22.1	1	4	112	0.00	30.454 
14:20	39.2	39.2	39.2	51	22.6	0	2	112	0.00	30.454 
14:25	39.2	39.2	39.2	46	20.2	2	5	90	0.00	30.454 
14:30	38.5	38.5	38.5	45	19.0	3	7	112	0.00	30.447 
14:35	37.9	37.9	37.9	46	19.0	1	9	90	0.00	30.447 
14:40	38.3	38.3	38.3	52	22.2	1	4	90	0.00	30.447 
14:45	39.1	39.1	39.1	48	21.1	2	4	90	0.00	30.445 
14:50	39.6	39.6	39.6	51	23.0	1	4	90	0.00	30.445 
14:55	40.1	40.1	40.1	48	22.0	0	3	90	0.00	30.445 
15:00	40.2	40.2	40.2	54	24.9	1	4	315	0.00	30.428 
15:05	40.5	40.5	40.5	45	20.8	1	6	90	0.00	30.428 
15:10	40.2	40.2	40.2	48	22.1	1	4	90	0.00	30.428 
15:15	40.2	40.2	40.2	47	21.6	1	4	112	0.00	30.423 
15:20	40.5	40.5	40.5	48	22.4	0	5	112	0.00	30.423 
15:25	40.3	40.3	40.3	46	21.2	1	4	90	0.00	30.423 
15:30	40.3	40.3	40.3	50	23.2	0	3	112	0.00	30.408 
15:35	40.6	40.6	40.6	48	22.5	1	5	112	0.00	30.408 
15:40	40.3	40.3	40.3	47	21.7	2	6	90	0.00	30.408 
15:45	40.2	40.2	40.2	45	20.6	1	5	112	0.00	30.400 
15:50	40.3	40.3	40.3	45	20.7	1	5	135	0.00	30.400 
15:55	40.5	40.5	40.5	44	20.3	1	6	90	0.00	30.400 
16:00	40.3	40.3	40.3	44	20.1	1	3	112	0.00	30.389 
16:05	40.3	40.3	40.3	44	20.1	3	10	112	0.00	30.389 
16:10	40.3	40.3	40.3	43	19.6	2	5	112	0.00	30.389 
16:15	40.6	40.6	40.6	44	20.4	1	4	112	0.00	30.381 
16:20	40.6	40.6	40.6	43	19.9	2	7	90	0.00	30.381 
16:25	40.5	40.5	40.5	44	20.3	1	5	90	0.00	30.381 
16:30	40.9	40.9	40.9	44	20.7	1	4	112	0.00	30.380 
16:35	41.1	41.1	41.1	41	19.2	1	4	90	0.00	30.380 
16:40	41.1	41.1	41.1	41	19.2	2	5	90	0.00	30.380 
16:45	41.1	41.1	41.1	42	19.8	1	4	90	0.00	30.372 
16:50	41.1	41.1	41.1	43	20.3	1	3	68	0.00	30.372 
16:55	40.9	40.9	40.9	42	19.6	2	7	68	0.00	30.372 
17:00	40.8	40.8	40.8	40	18.4	1	5	90	0.00	30.365 
17:05	40.9	40.9	40.9	42	19.6	1	4	90	0.00	30.365 
17:10	40.9	40.9	40.9	44	20.7	1	4	112	0.00	30.365 
17:15	41.1	41.1	41.1	43	20.3	2	5	112	0.00	30.359 
17:20	41.1	41.1	41.1	43	20.3	2	9	112	0.00	30.359 
17:25	41.1	41.1	41.1	44	20.9	1	3	90	0.00	30.359 
17:30	41.2	41.2	41.2	44	21.0	2	4	112	0.00	30.345 
17:35	41.3	41.3	41.3	42	20.0	2	6	112	0.00	30.345 
17:40	41.3	41.3	41.3	43	20.5	1	5	90	0.00	30.345 
17:45	41.3	41.3	41.3	43	20.5	2	5	112	0.00	30.342 
17:50	41.3	41.3	41.3	43	20.5	1	5	112	0.00	30.342 
17:55	41.5	41.5	41.5	42	20.1	2	4	112	0.00	30.342 
18:00	41.6	41.6	41.6	42	20.2	2	6	135	0.00	30.335 
18:05	41.6	41.6	41.6	43	20.8	2	7	90	0.00	30.335 
18:10	41.5	41.5	41.5	43	20.7	1	4	90	0.00	30.335 
18:15	41.5	41.5	41.5	43	20.7	1	4	112	0.00	30.335 
18:20	41.3	41.3	41.3	42	20.0	2	5	135	0.00	30.335 
18:25	41.2	41.2	41.2	42	19.9	2	5	112	0.00	30.335 
18:30	41.1	41.1	41.1	42	19.8	2	7	112	0.00	30.332 
18:35	40.9	40.9	40.9	42	19.6	1	5	112	0.00	30.332 
18:40	41.1	41.1	41.1	42	19.8	1	4	112	0.00	30.332 
18:45	41.2	41.2	41.2	43	20.4	1	3	112	0.00	30.323 
18:50	41.2	41.2	41.2	43	20.4	1	4	112	0.00	30.323 
18:55	40.9	40.9	40.9	40	18.5	2	7	112	0.00	30.323 
19:00	40.8	40.8	40.8	41	18.9	1	4	90	0.00	30.320 
19:05	40.8	40.8	40.8	42	19.5	1	5	112	0.00	30.320 
19:10	40.8	40.8	40.8	43	20.1	1	4	112	0.00	30.320 
19:15	40.6	40.6	40.6	42	19.3	2	6	112	0.00	30.312 
19:20	40.5	40.5	40.5	43	19.8	2	4	112	0.00	30.312 
19:25	40.5	40.5	40.5	42	19.2	1	4	90	0.00	30.312 
19:30	40.3	40.3	40.3	41	18.5	1	3	90	0.00	30.304 
19:35	40.2	40.2	40.2	41	18.4	1	4	112	0.00	30.304 
19:40	40.1	40.1	40.1	40	17.7	2	5	90	0.00	30.304 
19:45	39.9	39.9	39.9	40	17.6	1	3	90	0.00	30.296 
19:50	39.8	39.8	39.8	40	17.5	0	2	90	0.00	30.296 
19:55	39.6	39.6	39.6	41	17.9	0	2	90	0.00	30.296 
20:00	39.5	39.5	39.5	42	18.3	1	5	90	0.00	30.291 
20:05	39.2	39.2	39.2	42	18.1	1	3	112	0.00	30.291 
20:10	39.1	39.1	39.1	42	18.0	1	3	112	0.00	30.291 
20:15	38.9	38.9	38.9	43	18.3	0	3	112	0.00	30.290 
20:20	38.8	38.8	38.8	43	18.2	1	3	112	0.00	30.290 
20:25	38.6	38.6	38.6	44	18.6	0	2	112	0.00	30.290 
20:30	38.5	38.5	38.5	45	19.0	0	1	112	0.00	30.284 
20:35	38.2	38.2	38.2	46	19.3	0	1	112	0.00	30.284 
20:40	38.0	38.0	38.0	46	19.1	0	3	112	0.00	30.284 
20:45	37.8	37.8	37.8	47	19.4	0	1	112	0.00	30.276 
20:50	37.6	37.6	37.6	47	19.2	0	1	112	0.00	30.276 
20:55	37.5	37.5	37.5	49	20.1	0	1	112	0.00	30.276 
21:00	37.2	37.2	37.2	49	19.8	0	1	112	0.00	30.274 
21:05	37.2	37.2	37.2	50	20.3	0	1	112	0.00	30.274 
21:10	37.0	37.0	37.0	51	20.6	0	1	112	0.00	30.274 
21:15	36.9	36.9	36.9	51	20.5	0	1	112	0.00	30.265 
21:20	36.8	36.8	36.8	51	20.4	0	2	112	0.00	30.265 
21:25	36.9	36.9	36.9	52	20.9	0	2	112	0.00	30.265 
21:30	36.9	36.9	36.9	52	20.9	0	1	112	0.00	30.258 
21:35	37.0	37.0	37.0	52	21.0	0	1	112	0.00	30.258 
21:40	37.0	37.0	37.0	52	21.0	0	2	135	0.00	30.258 
21:45	37.2	37.2	37.2	52	21.2	0	1	135	0.00	30.251 
21:50	37.2	37.2	37.2	52	21.2	0	2	135	0.00	30.251 
21:55	37.3	37.3	37.3	51	20.9	0	1	135	0.00	30.251 
22:00	37.3	37.3	37.3	52	21.3	0	1	135	0.00	30.243 
22:05	37.2	37.2	37.2	52	21.2	0	1	135	0.00	30.243 
22:10	37.0	37.0	37.0	52	21.0	0	1	135	0.00	30.243 
22:15	36.9	36.9	36.9	52	20.9	0	2	135	0.00	30.236 
22:20	36.8	36.8	36.8	53	21.3	0	2	135	0.00	30.236 
22:25	36.6	36.6	36.6	53	21.1	0	2	135	0.00	30.236 
22:30	36.5	36.5	36.5	54	21.5	0	2	135	0.00	30.232 
22:35	36.3	36.3	36.3	54	21.3	0	3	135	0.00	30.232 
22:40	36.3	36.3	36.3	53	20.8	0	1	135	0.00	30.232 
22:45	36.3	36.3	36.3	54	21.3	0	1	135	0.00	30.227 
22:50	36.3	36.3	36.3	54	21.3	0	2	135	0.00	30.227 
22:55	36.5	36.5	36.5	54	21.5	0	3	135	0.00	30.227 
23:00	36.5	36.5	36.5	54	21.5	0	2	112	0.00	30.219 
23:05	36.6	36.6	36.6	54	21.5	0	3	112	0.00	30.219 
23:10	36.6	36.6	36.6	54	21.5	0	2	112	0.00	30.219 
23:15	36.6	36.6	36.6	55	22.0	0	3	112	0.00	30.204 
23:20	36.6	36.6	36.6	55	22.0	0	2	112	0.00	30.204 
23:25	36.8	36.8	36.8	55	22.2	0	2	112	0.00	30.204 
23:30	36.9	36.9	36.9	54	21.8	0	3	112	0.00	30.196 
23:35	37.0	37.0	37.0	54	21.9	0	2	112	0.00	30.196 
23:40	37.2	37.2	37.2	54	22.1	0	1	112	0.00	30.196 
23:45	37.2	37.2	37.2	54	22.1	0	2	112	0.00	30.188 
23:50	37.3	37.3	37.3	54	22.2	0	2	112	0.00	30.188 
23:55	37.5	37.5	37.5	54	22.4	0	2	112	0.00	30.188 

CoCoRaHS
IN-AL-39
A2 Web Hosting
Creative Commons License
GoDaddy
search engine by freefind advanced

loaded 2018-11-13 01:53:59 • last modified 2010-11-18 10:43:29
Privacy PolicyDisclaimer
• wx.awcolley.com is powered by PmWiki v.2002016 •
• all content (unless otherwise noted) © 2018 A W Colley